createdAt,value
2022-11-13T00:00:55.000Z,1020.9
2022-11-13T00:02:11.000Z,1020.9
2022-11-13T00:03:27.000Z,1020.8
2022-11-13T00:04:44.000Z,1020.8
2022-11-13T00:06:00.000Z,1020.8
2022-11-13T00:07:16.000Z,1020.8
2022-11-13T00:08:32.000Z,1020.7
2022-11-13T00:09:49.000Z,1020.8
2022-11-13T00:11:04.000Z,1020.8
2022-11-13T00:12:19.000Z,1020.8
2022-11-13T00:13:36.000Z,1020.8
2022-11-13T00:14:52.000Z,1020.8
2022-11-13T00:16:08.000Z,1020.8
2022-11-13T00:17:24.000Z,1020.8
2022-11-13T00:18:41.000Z,1020.8
2022-11-13T00:19:57.000Z,1020.8
2022-11-13T00:21:13.000Z,1020.8
2022-11-13T00:22:30.000Z,1020.8
2022-11-13T00:23:46.000Z,1020.8
2022-11-13T00:25:02.000Z,1020.8
2022-11-13T00:26:18.000Z,1020.7
2022-11-13T00:27:35.000Z,1020.7
2022-11-13T00:28:50.000Z,1020.7
2022-11-13T00:30:06.000Z,1020.7
2022-11-13T00:32:39.000Z,1020.7
2022-11-13T00:33:55.000Z,1020.6
2022-11-13T00:35:12.000Z,1020.6
2022-11-13T00:36:28.000Z,1020.6
2022-11-13T00:37:44.000Z,1020.6
2022-11-13T00:39:00.000Z,1020.6
2022-11-13T00:40:17.000Z,1020.6
2022-11-13T00:41:33.000Z,1020.6
2022-11-13T00:42:49.000Z,1020.6
2022-11-13T00:44:06.000Z,1020.6
2022-11-13T00:45:21.000Z,1020.6
2022-11-13T00:46:37.000Z,1020.5
2022-11-13T00:47:53.000Z,1020.5
2022-11-13T00:49:10.000Z,1020.6
2022-11-13T00:50:26.000Z,1020.5
2022-11-13T00:51:42.000Z,1020.5
2022-11-13T00:52:59.000Z,1020.5
2022-11-13T00:54:15.000Z,1020.5
2022-11-13T00:55:31.000Z,1020.5
2022-11-13T00:56:47.000Z,1020.5
2022-11-13T00:58:04.000Z,1020.5
2022-11-13T00:59:20.000Z,1020.5
2022-11-13T01:00:36.000Z,1020.5
2022-11-13T01:01:52.000Z,1020.5
2022-11-13T01:03:08.000Z,1020.5
2022-11-13T01:04:24.000Z,1020.5
2022-11-13T01:05:40.000Z,1020.5
2022-11-13T01:06:57.000Z,1020.5
2022-11-13T01:08:13.000Z,1020.5
2022-11-13T01:09:29.000Z,1020.5
2022-11-13T01:10:46.000Z,1020.4
2022-11-13T01:12:02.000Z,1020.5
2022-11-13T01:13:18.000Z,1020.5
2022-11-13T01:14:34.000Z,1020.5
2022-11-13T01:15:51.000Z,1020.5
2022-11-13T01:17:07.000Z,1020.5
2022-11-13T01:18:22.000Z,1020.5
2022-11-13T01:19:39.000Z,1020.6
2022-11-13T01:20:55.000Z,1020.6
2022-11-13T01:23:27.000Z,1020.6
2022-11-13T01:24:44.000Z,1020.6
2022-11-13T01:26:00.000Z,1020.6
2022-11-13T01:27:16.000Z,1020.6
2022-11-13T01:28:32.000Z,1020.5
2022-11-13T01:29:48.000Z,1020.5
2022-11-13T01:31:04.000Z,1020.5
2022-11-13T01:32:21.000Z,1020.5
2022-11-13T01:33:37.000Z,1020.5
2022-11-13T01:34:53.000Z,1020.5
2022-11-13T01:36:09.000Z,1020.5
2022-11-13T01:37:26.000Z,1020.4
2022-11-13T01:38:42.000Z,1020.5
2022-11-13T01:39:58.000Z,1020.4
2022-11-13T01:41:15.000Z,1020.4
2022-11-13T01:42:31.000Z,1020.4
2022-11-13T01:43:47.000Z,1020.4
2022-11-13T01:45:02.000Z,1020.4
2022-11-13T01:46:19.000Z,1020.4
2022-11-13T01:47:35.000Z,1020.4
2022-11-13T01:48:51.000Z,1020.4
2022-11-13T01:50:08.000Z,1020.4
2022-11-13T01:51:24.000Z,1020.4
2022-11-13T01:52:40.000Z,1020.4
2022-11-13T01:53:56.000Z,1020.3
2022-11-13T01:55:13.000Z,1020.3
2022-11-13T01:56:29.000Z,1020.3
2022-11-13T01:57:45.000Z,1020.3
2022-11-13T01:59:02.000Z,1020.3
2022-11-13T02:00:18.000Z,1020.3
2022-11-13T02:01:33.000Z,1020.3
2022-11-13T02:02:49.000Z,1020.3
2022-11-13T02:04:06.000Z,1020.3
2022-11-13T02:05:22.000Z,1020.3
2022-11-13T02:07:55.000Z,1020.3
2022-11-13T02:09:11.000Z,1020.3
2022-11-13T02:10:27.000Z,1020.3
2022-11-13T02:11:43.000Z,1020.3
2022-11-13T02:14:16.000Z,1020.2
2022-11-13T02:15:32.000Z,1020.3
2022-11-13T02:16:49.000Z,1020.2
2022-11-13T02:18:04.000Z,1020.1
2022-11-13T02:19:20.000Z,1020.1
2022-11-13T02:20:36.000Z,1020.1
2022-11-13T02:21:53.000Z,1020.1
2022-11-13T02:23:09.000Z,1020
2022-11-13T02:24:25.000Z,1020
2022-11-13T02:25:42.000Z,1020
2022-11-13T02:26:58.000Z,1020
2022-11-13T02:28:14.000Z,1020
2022-11-13T02:29:30.000Z,1020
2022-11-13T02:30:47.000Z,1020
2022-11-13T02:33:19.000Z,1020
2022-11-13T02:34:35.000Z,1020
2022-11-13T02:35:50.000Z,1020
2022-11-13T02:37:06.000Z,1020
2022-11-13T02:38:23.000Z,1020
2022-11-13T02:39:39.000Z,1020
2022-11-13T02:40:55.000Z,1020
2022-11-13T02:42:11.000Z,1020
2022-11-13T02:43:28.000Z,1020
2022-11-13T02:44:44.000Z,1019.9
2022-11-13T02:46:00.000Z,1019.9
2022-11-13T02:47:17.000Z,1019.9
2022-11-13T02:48:32.000Z,1019.9
2022-11-13T02:49:47.000Z,1019.8
2022-11-13T02:51:03.000Z,1019.9
2022-11-13T02:52:20.000Z,1019.9
2022-11-13T02:53:36.000Z,1019.9
2022-11-13T02:54:52.000Z,1019.8
2022-11-13T02:56:09.000Z,1019.8
2022-11-13T02:57:25.000Z,1019.8
2022-11-13T02:58:41.000Z,1019.8
2022-11-13T02:59:57.000Z,1019.8
2022-11-13T03:01:14.000Z,1019.8
2022-11-13T03:02:30.000Z,1019.8
2022-11-13T03:05:03.000Z,1019.8
2022-11-13T03:06:18.000Z,1019.8
2022-11-13T03:07:34.000Z,1019.8
2022-11-13T03:08:50.000Z,1019.8
2022-11-13T03:10:07.000Z,1019.7
2022-11-13T03:11:23.000Z,1019.7
2022-11-13T03:12:39.000Z,1019.7
2022-11-13T03:13:56.000Z,1019.7
2022-11-13T03:15:12.000Z,1019.7
2022-11-13T03:16:28.000Z,1019.6
2022-11-13T03:17:45.000Z,1019.6
2022-11-13T03:19:01.000Z,1019.6
2022-11-13T03:20:17.000Z,1019.6
2022-11-13T03:21:33.000Z,1019.6
2022-11-13T03:22:49.000Z,1019.6
2022-11-13T03:24:05.000Z,1019.6
2022-11-13T03:25:21.000Z,1019.5
2022-11-13T03:27:54.000Z,1019.6
2022-11-13T03:29:10.000Z,1019.6
2022-11-13T03:30:26.000Z,1019.6
2022-11-13T03:31:43.000Z,1019.6
2022-11-13T03:32:59.000Z,1019.6
2022-11-13T03:34:15.000Z,1019.6
2022-11-13T03:35:32.000Z,1019.6
2022-11-13T03:36:48.000Z,1019.5
2022-11-13T03:38:04.000Z,1019.6
2022-11-13T03:39:19.000Z,1019.5
2022-11-13T03:40:36.000Z,1019.5
2022-11-13T03:41:52.000Z,1019.5
2022-11-13T03:44:25.000Z,1019.5
2022-11-13T03:45:41.000Z,1019.5
2022-11-13T03:46:57.000Z,1019.5
2022-11-13T03:48:13.000Z,1019.5
2022-11-13T03:49:30.000Z,1019.4
2022-11-13T03:50:46.000Z,1019.5
2022-11-13T03:52:02.000Z,1019.5
2022-11-13T03:53:19.000Z,1019.5
2022-11-13T03:55:51.000Z,1019.5
2022-11-13T03:57:06.000Z,1019.5
2022-11-13T03:58:23.000Z,1019.4
2022-11-13T03:59:39.000Z,1019.5
2022-11-13T04:00:55.000Z,1019.5
2022-11-13T04:02:12.000Z,1019.4
2022-11-13T04:03:28.000Z,1019.4
2022-11-13T04:04:44.000Z,1019.5
2022-11-13T04:06:00.000Z,1019.4
2022-11-13T04:07:17.000Z,1019.4
2022-11-13T04:08:33.000Z,1019.4
2022-11-13T04:09:49.000Z,1019.4
2022-11-13T04:11:06.000Z,1019.4
2022-11-13T04:12:22.000Z,1019.4
2022-11-13T04:13:37.000Z,1019.4
2022-11-13T04:14:54.000Z,1019.4
2022-11-13T04:16:10.000Z,1019.3
2022-11-13T04:17:26.000Z,1019.3
2022-11-13T04:19:59.000Z,1019.3
2022-11-13T04:22:31.000Z,1019.2
2022-11-13T04:23:48.000Z,1019.2
2022-11-13T04:25:04.000Z,1019.2
2022-11-13T04:26:20.000Z,1019.2
2022-11-13T04:27:36.000Z,1019.2
2022-11-13T04:28:53.000Z,1019.2
2022-11-13T04:30:08.000Z,1019.2
2022-11-13T04:31:24.000Z,1019.2
2022-11-13T04:32:41.000Z,1019.2
2022-11-13T04:33:57.000Z,1019.2
2022-11-13T04:35:13.000Z,1019.2
2022-11-13T04:36:29.000Z,1019.2
2022-11-13T04:37:46.000Z,1019.1
2022-11-13T04:39:02.000Z,1019.1
2022-11-13T04:40:18.000Z,1019.2
2022-11-13T04:41:35.000Z,1019.2
2022-11-13T04:44:07.000Z,1019.1
2022-11-13T04:47:55.000Z,1019.1
2022-11-13T04:49:10.000Z,1019.1
2022-11-13T04:50:26.000Z,1019.1
2022-11-13T04:51:42.000Z,1019.1
2022-11-13T04:52:58.000Z,1019.1
2022-11-13T04:54:14.000Z,1019.1
2022-11-13T04:55:31.000Z,1019.1
2022-11-13T04:56:47.000Z,1019
2022-11-13T04:58:03.000Z,1019
2022-11-13T04:59:20.000Z,1019
2022-11-13T05:00:36.000Z,1019
2022-11-13T05:01:52.000Z,1019
2022-11-13T05:03:08.000Z,1019
2022-11-13T05:04:23.000Z,1018.9
2022-11-13T05:05:39.000Z,1019
2022-11-13T05:06:55.000Z,1018.9
2022-11-13T05:08:12.000Z,1019
2022-11-13T05:09:28.000Z,1018.9
2022-11-13T05:10:44.000Z,1019
2022-11-13T05:12:01.000Z,1019
2022-11-13T05:13:17.000Z,1019
2022-11-13T05:14:33.000Z,1018.9
2022-11-13T05:15:49.000Z,1018.9
2022-11-13T05:17:06.000Z,1018.9
2022-11-13T05:18:22.000Z,1018.9
2022-11-13T05:19:38.000Z,1018.9
2022-11-13T05:20:54.000Z,1018.8
2022-11-13T05:22:10.000Z,1018.8
2022-11-13T05:24:42.000Z,1018.8
2022-11-13T05:25:59.000Z,1018.7
2022-11-13T05:27:15.000Z,1018.7
2022-11-13T05:28:31.000Z,1018.7
2022-11-13T05:29:48.000Z,1018.8
2022-11-13T05:31:04.000Z,1018.8
2022-11-13T05:32:20.000Z,1018.7
2022-11-13T05:33:36.000Z,1018.7
2022-11-13T05:34:53.000Z,1018.8
2022-11-13T05:37:25.000Z,1018.7
2022-11-13T05:38:41.000Z,1018.7
2022-11-13T05:39:57.000Z,1018.7
2022-11-13T05:41:13.000Z,1018.7
2022-11-13T05:42:29.000Z,1018.7
2022-11-13T05:43:45.000Z,1018.8
2022-11-13T05:46:17.000Z,1018.7
2022-11-13T05:47:33.000Z,1018.7
2022-11-13T05:48:48.000Z,1018.7
2022-11-13T05:50:04.000Z,1018.7
2022-11-13T05:51:21.000Z,1018.7
2022-11-13T05:52:37.000Z,1018.7
2022-11-13T05:53:53.000Z,1018.7
2022-11-13T05:55:09.000Z,1018.7
2022-11-13T05:56:26.000Z,1018.7
2022-11-13T05:57:42.000Z,1018.6
2022-11-13T05:58:58.000Z,1018.6
2022-11-13T06:00:15.000Z,1018.6
2022-11-13T06:02:46.000Z,1018.6
2022-11-13T06:04:01.000Z,1018.6
2022-11-13T06:05:18.000Z,1018.6
2022-11-13T06:06:34.000Z,1018.6
2022-11-13T06:07:50.000Z,1018.5
2022-11-13T06:09:06.000Z,1018.5
2022-11-13T06:10:23.000Z,1018.5
2022-11-13T06:11:39.000Z,1018.4
2022-11-13T06:12:55.000Z,1018.5
2022-11-13T06:15:28.000Z,1018.4
2022-11-13T06:16:44.000Z,1018.4
2022-11-13T06:18:00.000Z,1018.5
2022-11-13T06:19:16.000Z,1018.5
2022-11-13T06:20:32.000Z,1018.4
2022-11-13T06:21:48.000Z,1018.4
2022-11-13T06:23:04.000Z,1018.3
2022-11-13T06:24:20.000Z,1018.4
2022-11-13T06:25:37.000Z,1018.4
2022-11-13T06:26:53.000Z,1018.4
2022-11-13T06:28:09.000Z,1018.4
2022-11-13T06:29:24.000Z,1018.3
2022-11-13T06:30:40.000Z,1018.4
2022-11-13T06:31:56.000Z,1018.4
2022-11-13T06:33:12.000Z,1018.3
2022-11-13T06:34:28.000Z,1018.3
2022-11-13T06:35:45.000Z,1018.3
2022-11-13T06:37:01.000Z,1018.3
2022-11-13T06:38:17.000Z,1018.3
2022-11-13T06:42:06.000Z,1018.3
2022-11-13T06:43:22.000Z,1018.3
2022-11-13T06:44:38.000Z,1018.3
2022-11-13T06:45:53.000Z,1018.3
2022-11-13T06:47:09.000Z,1018.3
2022-11-13T06:48:25.000Z,1018.3
2022-11-13T06:49:41.000Z,1018.2
2022-11-13T06:50:57.000Z,1018.3
2022-11-13T06:53:30.000Z,1018.3
2022-11-13T06:54:46.000Z,1018.3
2022-11-13T06:56:02.000Z,1018.3
2022-11-13T06:57:19.000Z,1018.3
2022-11-13T06:58:35.000Z,1018.3
2022-11-13T06:59:51.000Z,1018.3
2022-11-13T07:01:07.000Z,1018.2
2022-11-13T07:02:23.000Z,1018.2
2022-11-13T07:03:39.000Z,1018.2
2022-11-13T07:04:55.000Z,1018.2
2022-11-13T07:06:11.000Z,1018.2
2022-11-13T07:07:27.000Z,1018.2
2022-11-13T07:08:44.000Z,1018.2
2022-11-13T07:10:00.000Z,1018.2
2022-11-13T07:12:32.000Z,1018.2
2022-11-13T07:13:49.000Z,1018.2
2022-11-13T07:15:05.000Z,1018.2
2022-11-13T07:16:21.000Z,1018.1
2022-11-13T07:17:37.000Z,1018.1
2022-11-13T07:18:54.000Z,1018.1
2022-11-13T07:20:09.000Z,1018.1
2022-11-13T07:21:24.000Z,1018.1
2022-11-13T07:22:40.000Z,1018.1
2022-11-13T07:23:57.000Z,1018.1
2022-11-13T07:25:13.000Z,1018.1
2022-11-13T07:26:29.000Z,1018.1
2022-11-13T07:27:45.000Z,1018.1
2022-11-13T07:29:01.000Z,1018.1
2022-11-13T07:30:18.000Z,1018.1
2022-11-13T07:31:34.000Z,1018.1
2022-11-13T07:32:50.000Z,1018.1
2022-11-13T07:34:06.000Z,1018
2022-11-13T07:35:23.000Z,1018.1
2022-11-13T07:36:39.000Z,1018.1
2022-11-13T07:37:54.000Z,1018.1
2022-11-13T07:39:10.000Z,1018
2022-11-13T07:40:27.000Z,1018.1
2022-11-13T07:41:43.000Z,1018.1
2022-11-13T07:42:59.000Z,1018
2022-11-13T07:44:15.000Z,1018
2022-11-13T07:45:32.000Z,1018.1
2022-11-13T07:46:48.000Z,1018
2022-11-13T07:48:04.000Z,1018
2022-11-13T07:49:20.000Z,1018
2022-11-13T07:50:36.000Z,1018.1
2022-11-13T07:51:53.000Z,1018
2022-11-13T07:53:09.000Z,1018
2022-11-13T07:54:24.000Z,1017.9
2022-11-13T07:55:40.000Z,1017.9
2022-11-13T07:56:57.000Z,1018
2022-11-13T07:58:13.000Z,1018
2022-11-13T07:59:29.000Z,1018
2022-11-13T08:00:45.000Z,1017.9
2022-11-13T08:02:02.000Z,1017.9
2022-11-13T08:03:18.000Z,1017.9
2022-11-13T08:04:34.000Z,1017.9
2022-11-13T08:05:50.000Z,1017.9
2022-11-13T08:07:06.000Z,1017.8
2022-11-13T08:09:39.000Z,1017.8
2022-11-13T08:10:54.000Z,1017.8
2022-11-13T08:13:27.000Z,1017.7
2022-11-13T08:14:43.000Z,1017.7
2022-11-13T08:15:59.000Z,1017.7
2022-11-13T08:17:15.000Z,1017.7
2022-11-13T08:18:32.000Z,1017.6
2022-11-13T08:19:48.000Z,1017.5
2022-11-13T08:23:37.000Z,1017.4
2022-11-13T08:24:52.000Z,1017.5
2022-11-13T08:26:07.000Z,1017.4
2022-11-13T08:27:23.000Z,1017.4
2022-11-13T08:28:40.000Z,1017.5
2022-11-13T08:29:56.000Z,1017.5
2022-11-13T08:31:12.000Z,1017.4
2022-11-13T08:32:28.000Z,1017.4
2022-11-13T08:33:44.000Z,1017.4
2022-11-13T08:35:01.000Z,1017.4
2022-11-13T08:36:17.000Z,1017.4
2022-11-13T08:37:33.000Z,1017.3
2022-11-13T08:38:48.000Z,1017.3
2022-11-13T08:40:04.000Z,1017.3
2022-11-13T08:41:20.000Z,1017.4
2022-11-13T08:42:36.000Z,1017.3
2022-11-13T08:43:52.000Z,1017.3
2022-11-13T08:45:09.000Z,1017.3
2022-11-13T08:47:41.000Z,1017.3
2022-11-13T08:48:57.000Z,1017.2
2022-11-13T08:50:14.000Z,1017.3
2022-11-13T08:51:30.000Z,1017.3
2022-11-13T08:52:46.000Z,1017.3
2022-11-13T08:54:02.000Z,1017.2
2022-11-13T08:55:18.000Z,1017.2
2022-11-13T08:56:34.000Z,1017.3
2022-11-13T08:57:50.000Z,1017.2
2022-11-13T09:00:22.000Z,1017.2
2022-11-13T09:01:38.000Z,1017.2
2022-11-13T09:02:53.000Z,1017.2
2022-11-13T09:04:09.000Z,1017.2
2022-11-13T09:05:25.000Z,1017.2
2022-11-13T09:06:42.000Z,1017.2
2022-11-13T09:07:58.000Z,1017.2
2022-11-13T09:09:14.000Z,1017.2
2022-11-13T09:11:47.000Z,1017.1
2022-11-13T09:13:03.000Z,1017.1
2022-11-13T09:14:19.000Z,1017.1
2022-11-13T09:16:51.000Z,1017.1
2022-11-13T09:18:07.000Z,1017
2022-11-13T09:19:22.000Z,1017
2022-11-13T09:20:38.000Z,1017
2022-11-13T09:21:54.000Z,1016.9
2022-11-13T09:23:11.000Z,1016.8
2022-11-13T09:25:43.000Z,1016.9
2022-11-13T09:26:59.000Z,1017
2022-11-13T09:28:16.000Z,1017
2022-11-13T09:29:32.000Z,1016.9
2022-11-13T09:30:48.000Z,1017
2022-11-13T09:32:04.000Z,1017
2022-11-13T09:33:21.000Z,1017
2022-11-13T09:34:37.000Z,1017.1
2022-11-13T09:35:52.000Z,1017
2022-11-13T09:37:08.000Z,1017
2022-11-13T09:38:25.000Z,1017
2022-11-13T09:39:41.000Z,1017
2022-11-13T09:40:57.000Z,1017
2022-11-13T09:42:13.000Z,1016.9
2022-11-13T09:43:29.000Z,1016.9
2022-11-13T09:44:46.000Z,1016.9
2022-11-13T09:46:01.000Z,1016.8
2022-11-13T09:47:16.000Z,1016.8
2022-11-13T09:48:32.000Z,1016.8
2022-11-13T09:49:49.000Z,1016.7
2022-11-13T09:51:05.000Z,1016.7
2022-11-13T09:52:21.000Z,1016.6
2022-11-13T09:53:37.000Z,1016.6
2022-11-13T09:54:54.000Z,1016.6
2022-11-13T09:56:10.000Z,1016.5
2022-11-13T09:57:26.000Z,1016.5
2022-11-13T09:58:41.000Z,1016.4
2022-11-13T09:59:58.000Z,1016.4
2022-11-13T10:01:13.000Z,1016.3
2022-11-13T10:03:44.000Z,1016.3
2022-11-13T10:05:01.000Z,1016.2
2022-11-13T10:06:17.000Z,1016.2
2022-11-13T10:07:33.000Z,1016.2
2022-11-13T10:08:49.000Z,1016.1
2022-11-13T10:10:05.000Z,1016.1
2022-11-13T10:11:22.000Z,1016.1
2022-11-13T10:13:54.000Z,1016
2022-11-13T10:15:10.000Z,1016
2022-11-13T10:16:27.000Z,1016
2022-11-13T10:17:43.000Z,1016
2022-11-13T10:18:58.000Z,1016
2022-11-13T10:20:14.000Z,1016
2022-11-13T10:21:31.000Z,1016
2022-11-13T10:22:47.000Z,1016
2022-11-13T10:24:03.000Z,1015.9
2022-11-13T10:25:19.000Z,1015.9
2022-11-13T10:26:36.000Z,1015.9
2022-11-13T10:27:52.000Z,1015.9
2022-11-13T10:29:08.000Z,1015.9
2022-11-13T10:30:24.000Z,1015.9
2022-11-13T10:31:40.000Z,1015.8
2022-11-13T10:32:57.000Z,1015.8
2022-11-13T10:34:13.000Z,1015.8
2022-11-13T10:35:28.000Z,1015.8
2022-11-13T10:36:44.000Z,1015.8
2022-11-13T10:38:01.000Z,1015.8
2022-11-13T10:39:17.000Z,1015.7
2022-11-13T10:40:33.000Z,1015.7
2022-11-13T10:41:49.000Z,1015.7
2022-11-13T10:43:06.000Z,1015.7
2022-11-13T10:44:22.000Z,1015.6
2022-11-13T10:45:38.000Z,1015.6
2022-11-13T10:46:54.000Z,1015.6
2022-11-13T10:48:11.000Z,1015.5
2022-11-13T10:49:27.000Z,1015.6
2022-11-13T10:51:59.000Z,1015.5
2022-11-13T10:54:31.000Z,1015.5
2022-11-13T10:55:47.000Z,1015.5
2022-11-13T10:57:03.000Z,1015.4
2022-11-13T10:58:19.000Z,1015.4
2022-11-13T10:59:36.000Z,1015.4
2022-11-13T11:00:52.000Z,1015.4
2022-11-13T11:02:08.000Z,1015.4
2022-11-13T11:03:24.000Z,1015.3
2022-11-13T11:04:41.000Z,1015.5
2022-11-13T11:05:57.000Z,1015.4
2022-11-13T11:07:13.000Z,1015.4
2022-11-13T11:08:29.000Z,1015.4
2022-11-13T11:09:45.000Z,1015.3
2022-11-13T11:11:01.000Z,1015.3
2022-11-13T11:12:17.000Z,1015.3
2022-11-13T11:13:33.000Z,1015.3
2022-11-13T11:14:49.000Z,1015.3
2022-11-13T11:16:06.000Z,1015.4
2022-11-13T11:17:22.000Z,1015.4
2022-11-13T11:19:54.000Z,1015.5
2022-11-13T11:21:11.000Z,1015.5
2022-11-13T11:22:27.000Z,1015.4
2022-11-13T11:23:43.000Z,1015.4
2022-11-13T11:24:59.000Z,1015.3
2022-11-13T11:26:15.000Z,1015.4
2022-11-13T11:27:31.000Z,1015.4
2022-11-13T11:28:47.578Z,1015.3
2022-11-13T11:30:03.000Z,1015.3
2022-11-13T11:31:20.000Z,1015.3
2022-11-13T11:32:36.000Z,1015.2
2022-11-13T11:33:52.000Z,1015.1
2022-11-13T11:35:08.000Z,1015.1
2022-11-13T11:36:24.000Z,1015
2022-11-13T11:38:57.000Z,1015
2022-11-13T11:40:13.000Z,1014.9
2022-11-13T11:41:29.000Z,1014.9
2022-11-13T11:42:45.000Z,1015.1
2022-11-13T11:44:01.000Z,1014.9
2022-11-13T11:45:17.000Z,1014.8
2022-11-13T11:46:33.000Z,1014.8
2022-11-13T11:47:50.000Z,1014.8
2022-11-13T11:49:06.000Z,1014.9
2022-11-13T11:50:22.000Z,1014.8
2022-11-13T11:51:38.000Z,1014.8
2022-11-13T11:52:55.000Z,1014.9
2022-11-13T11:54:11.000Z,1015
2022-11-13T11:55:27.000Z,1015
2022-11-13T11:56:43.000Z,1015
2022-11-13T11:57:59.000Z,1015.1
2022-11-13T11:59:15.000Z,1015.1
2022-11-13T12:00:31.000Z,1015
2022-11-13T12:01:47.000Z,1015
2022-11-13T12:03:03.000Z,1014.9
2022-11-13T12:04:20.000Z,1015
2022-11-13T12:05:36.000Z,1015
2022-11-13T12:06:52.000Z,1014.9
2022-11-13T12:08:08.000Z,1014.9
2022-11-13T12:10:41.000Z,1014.8
2022-11-13T12:11:57.000Z,1014.7
2022-11-13T12:13:13.000Z,1014.7
2022-11-13T12:14:30.000Z,1014.7
2022-11-13T12:15:45.000Z,1014.7
2022-11-13T12:17:01.000Z,1014.6
2022-11-13T12:18:17.000Z,1014.6
2022-11-13T12:19:34.000Z,1014.6
2022-11-13T12:20:50.000Z,1014.6
2022-11-13T12:22:06.000Z,1014.6
2022-11-13T12:23:22.000Z,1014.6
2022-11-13T12:24:38.000Z,1014.6
2022-11-13T12:25:55.000Z,1014.5
2022-11-13T12:27:11.000Z,1014.6
2022-11-13T12:28:27.000Z,1014.7
2022-11-13T12:29:43.000Z,1014.4
2022-11-13T12:31:00.000Z,1014.4
2022-11-13T12:32:15.000Z,1014.4
2022-11-13T12:33:31.000Z,1014.4
2022-11-13T12:36:04.000Z,1014.4
2022-11-13T12:37:20.000Z,1014.4
2022-11-13T12:38:36.000Z,1014.3
2022-11-13T12:39:52.000Z,1014.3
2022-11-13T12:41:09.000Z,1014.3
2022-11-13T12:42:25.000Z,1014.3
2022-11-13T12:43:41.000Z,1014.3
2022-11-13T12:44:57.000Z,1014.3
2022-11-13T12:46:13.000Z,1014.3
2022-11-13T12:47:30.000Z,1014.3
2022-11-13T12:48:45.000Z,1014.3
2022-11-13T12:50:01.000Z,1014.3
2022-11-13T12:51:17.000Z,1014.3
2022-11-13T12:52:34.000Z,1014.3
2022-11-13T12:53:50.000Z,1014.2
2022-11-13T12:55:06.000Z,1014.2
2022-11-13T12:56:22.000Z,1014.1
2022-11-13T12:57:39.000Z,1014.1
2022-11-13T13:01:27.000Z,1014.1
2022-11-13T13:02:43.000Z,1014.1
2022-11-13T13:03:58.000Z,1014.1
2022-11-13T13:05:14.000Z,1014.2
2022-11-13T13:06:30.000Z,1014.2
2022-11-13T13:07:46.000Z,1014.1
2022-11-13T13:09:03.000Z,1014.1
2022-11-13T13:10:19.000Z,1014.1
2022-11-13T13:11:35.000Z,1014
2022-11-13T13:14:08.000Z,1013.9
2022-11-13T13:15:24.000Z,1013.9
2022-11-13T13:16:40.000Z,1013.9
2022-11-13T13:17:56.000Z,1013.9
2022-11-13T13:19:13.000Z,1013.9
2022-11-13T13:20:28.000Z,1013.9
2022-11-13T13:21:44.000Z,1013.9
2022-11-13T13:23:00.000Z,1013.8
2022-11-13T13:24:17.000Z,1013.9
2022-11-13T13:25:33.000Z,1013.9
2022-11-13T13:26:49.000Z,1013.9
2022-11-13T13:28:05.000Z,1013.9
2022-11-13T13:29:21.000Z,1013.9
2022-11-13T13:30:37.000Z,1013.9
2022-11-13T13:31:52.000Z,1013.9
2022-11-13T13:33:08.000Z,1013.9
2022-11-13T13:34:24.000Z,1013.8
2022-11-13T13:35:41.000Z,1013.9
2022-11-13T13:36:57.000Z,1013.8
2022-11-13T13:39:29.000Z,1013.8
2022-11-13T13:40:46.000Z,1013.8
2022-11-13T13:42:02.000Z,1013.7
2022-11-13T13:43:18.000Z,1013.7
2022-11-13T13:44:34.000Z,1013.7
2022-11-13T13:45:51.000Z,1013.7
2022-11-13T13:47:07.000Z,1013.6
2022-11-13T13:48:22.000Z,1013.7
2022-11-13T13:49:38.000Z,1013.6
2022-11-13T13:53:27.000Z,1013.6
2022-11-13T13:54:42.000Z,1013.6
2022-11-13T13:55:57.000Z,1013.6
2022-11-13T13:57:14.000Z,1013.5
2022-11-13T13:58:30.000Z,1013.5
2022-11-13T13:59:46.000Z,1013.5
2022-11-13T14:01:02.000Z,1013.5
2022-11-13T14:02:19.000Z,1013.5
2022-11-13T14:04:51.000Z,1013.5
2022-11-13T14:06:07.000Z,1013.5
2022-11-13T14:07:24.000Z,1013.5
2022-11-13T14:08:40.000Z,1013.5
2022-11-13T14:09:56.000Z,1013.5
2022-11-13T14:11:12.000Z,1013.5
2022-11-13T14:12:28.000Z,1013.5
2022-11-13T14:13:43.000Z,1013.5
2022-11-13T14:14:59.000Z,1013.5
2022-11-13T14:17:31.000Z,1013.4
2022-11-13T14:18:47.000Z,1013.5
2022-11-13T14:20:02.000Z,1013.4
2022-11-13T14:21:18.000Z,1013.4
2022-11-13T14:22:34.000Z,1013.4
2022-11-13T14:23:51.000Z,1013.4
2022-11-13T14:25:07.000Z,1013.4
2022-11-13T14:26:23.000Z,1013.4
2022-11-13T14:27:39.000Z,1013.4
2022-11-13T14:28:56.000Z,1013.3
2022-11-13T14:30:12.000Z,1013.4
2022-11-13T14:31:28.000Z,1013.4
2022-11-13T14:32:43.000Z,1013.4
2022-11-13T14:33:59.000Z,1013.4
2022-11-13T14:35:15.000Z,1013.4
2022-11-13T14:36:31.000Z,1013.4
2022-11-13T14:37:47.000Z,1013.4
2022-11-13T14:39:04.000Z,1013.4
2022-11-13T14:40:20.000Z,1013.4
2022-11-13T14:41:36.000Z,1013.4
2022-11-13T14:42:52.000Z,1013.4
2022-11-13T14:44:08.000Z,1013.4
2022-11-13T14:45:25.000Z,1013.4
2022-11-13T14:46:40.000Z,1013.4
2022-11-13T14:47:55.000Z,1013.4
2022-11-13T14:49:11.000Z,1013.4
2022-11-13T14:50:28.000Z,1013.4
2022-11-13T14:51:44.000Z,1013.4
2022-11-13T14:53:00.000Z,1013.4
2022-11-13T14:55:33.000Z,1013.3
2022-11-13T14:56:49.000Z,1013.3
2022-11-13T14:58:05.000Z,1013.3
2022-11-13T14:59:21.000Z,1013.3
2022-11-13T15:00:38.000Z,1013.3
2022-11-13T15:01:54.000Z,1013.3
2022-11-13T15:03:10.000Z,1013.3
2022-11-13T15:04:25.000Z,1013.3
2022-11-13T15:05:41.000Z,1013.3
2022-11-13T15:06:58.000Z,1013.2
2022-11-13T15:08:14.000Z,1013.2
2022-11-13T15:09:30.000Z,1013.2
2022-11-13T15:12:03.000Z,1013.2
2022-11-13T15:13:18.000Z,1013.2
2022-11-13T15:14:33.000Z,1013.2
2022-11-13T15:15:49.000Z,1013.2
2022-11-13T15:17:06.000Z,1013.2
2022-11-13T15:18:22.000Z,1013.1
2022-11-13T15:19:38.000Z,1013.1
2022-11-13T15:20:54.000Z,1013.2
2022-11-13T15:22:11.000Z,1013.2
2022-11-13T15:24:43.000Z,1013.2
2022-11-13T15:25:59.000Z,1013.2
2022-11-13T15:27:15.000Z,1013.2
2022-11-13T15:28:32.000Z,1013.2
2022-11-13T15:29:48.000Z,1013.2
2022-11-13T15:31:03.000Z,1013.2
2022-11-13T15:33:36.000Z,1013.2
2022-11-13T15:34:51.000Z,1013.2
2022-11-13T15:36:06.000Z,1013.2
2022-11-13T15:37:22.000Z,1013.2
2022-11-13T15:38:39.000Z,1013.2
2022-11-13T15:39:55.000Z,1013.2
2022-11-13T15:41:11.000Z,1013.2
2022-11-13T15:42:27.000Z,1013.2
2022-11-13T15:43:44.000Z,1013.2
2022-11-13T15:45:00.000Z,1013.2
2022-11-13T15:46:16.000Z,1013.2
2022-11-13T15:47:32.000Z,1013.2
2022-11-13T15:48:48.000Z,1013.2
2022-11-13T15:50:03.000Z,1013.2
2022-11-13T15:51:19.000Z,1013.2
2022-11-13T15:52:35.000Z,1013.2
2022-11-13T15:53:51.000Z,1013.2
2022-11-13T15:55:08.000Z,1013.2
2022-11-13T15:56:24.000Z,1013.2
2022-11-13T15:57:40.000Z,1013.2
2022-11-13T15:58:56.000Z,1013.1
2022-11-13T16:00:13.000Z,1013.1
2022-11-13T16:01:29.000Z,1013.1
2022-11-13T16:02:44.000Z,1013.2
2022-11-13T16:03:59.000Z,1013.1
2022-11-13T16:05:16.000Z,1013.1
2022-11-13T16:06:32.000Z,1013.1
2022-11-13T16:07:48.000Z,1013.1
2022-11-13T16:09:04.000Z,1013.1
2022-11-13T16:11:37.000Z,1013.1
2022-11-13T16:12:53.000Z,1013.1
2022-11-13T16:14:09.000Z,1013.1
2022-11-13T16:15:25.000Z,1013.1
2022-11-13T16:16:42.000Z,1013.1
2022-11-13T16:17:58.000Z,1013.1
2022-11-13T16:19:14.000Z,1013
2022-11-13T16:20:30.000Z,1013.1
2022-11-13T16:21:46.000Z,1013.1
2022-11-13T16:24:18.000Z,1013.1
2022-11-13T16:25:34.000Z,1013.1
2022-11-13T16:26:49.000Z,1013
2022-11-13T16:28:05.000Z,1013.1
2022-11-13T16:29:22.000Z,1013
2022-11-13T16:31:54.000Z,1013.1
2022-11-13T16:33:10.000Z,1013.1
2022-11-13T16:34:27.000Z,1013.1
2022-11-13T16:35:43.000Z,1013.1
2022-11-13T16:36:59.000Z,1013
2022-11-13T16:38:16.000Z,1013
2022-11-13T16:39:32.000Z,1013
2022-11-13T16:40:48.000Z,1013
2022-11-13T16:42:04.000Z,1013
2022-11-13T16:43:20.000Z,1013
2022-11-13T16:44:36.000Z,1013
2022-11-13T16:45:52.000Z,1013
2022-11-13T16:47:09.000Z,1013
2022-11-13T16:49:41.000Z,1013
2022-11-13T16:50:57.000Z,1013
2022-11-13T16:52:12.000Z,1012.9
2022-11-13T16:53:28.000Z,1012.9
2022-11-13T16:54:44.000Z,1012.9
2022-11-13T16:56:01.000Z,1012.9
2022-11-13T16:57:17.000Z,1012.9
2022-11-13T16:58:33.000Z,1012.8
2022-11-13T16:59:50.000Z,1012.8
2022-11-13T17:01:06.000Z,1012.8
2022-11-13T17:02:22.000Z,1012.8
2022-11-13T17:03:38.000Z,1012.8
2022-11-13T17:04:54.000Z,1012.8
2022-11-13T17:06:09.000Z,1012.8
2022-11-13T17:07:25.000Z,1012.7